Time;durP1;ratioP1;P1;durP2;ratioP2;P2;SDS_P1;SDS_P2;PMS_P1;PMS_P2;Temp;Humidity;BMP_temperature;BMP_pressure;BME280_temperature;BME280_humidity;BME280_pressure;Samples;Min_cycle;Max_cycle;Signal;HPM_P1;HPM_P2
2022/01/09 00:00:36;;;;;;;7.47;4.68;;;;;;;-1.17;82.31;99427.34;7393956;19;20010;-64
2022/01/09 00:03:05;;;;;;;6.10;5.18;;;;;;;-1.19;83.27;99429.03;7396484;19;20086;-64
2022/01/09 00:05:33;;;;;;;7.93;4.75;;;;;;;-1.20;84.19;99423.03;7395389;19;20029;-64
2022/01/09 00:08:05;;;;;;;7.93;4.90;;;;;;;-1.22;83.13;99422.16;7395922;19;20015;-64
2022/01/09 00:10:34;;;;;;;9.13;5.03;;;;;;;-1.23;83.81;99420.44;7396289;19;20014;-64
2022/01/09 00:13:02;;;;;;;7.78;4.68;;;;;;;-1.24;82.27;99415.28;7395644;19;20109;-64
2022/01/09 00:15:31;;;;;;;7.40;4.80;;;;;;;-1.30;82.96;99405.84;7395316;19;20022;-64
2022/01/09 00:17:59;;;;;;;7.60;4.60;;;;;;;-1.26;83.21;99404.09;7395327;19;20492;-64
2022/01/09 00:20:27;;;;;;;7.25;5.22;;;;;;;-1.27;81.59;99407.56;7395656;19;20027;-64
2022/01/09 00:22:56;;;;;;;10.02;4.60;;;;;;;-1.28;82.71;99391.25;7395528;19;20019;-64
2022/01/09 00:25:28;;;;;;;7.70;4.57;;;;;;;-1.29;83.24;99389.50;7394886;19;20018;-64
2022/01/09 00:27:56;;;;;;;8.60;4.70;;;;;;;-1.28;83.30;99386.09;7394995;19;20014;-64
2022/01/09 00:30:25;;;;;;;6.85;4.95;;;;;;;-1.28;83.96;99386.09;7395529;19;20031;-64
2022/01/09 00:32:54;;;;;;;10.05;5.65;;;;;;;-1.29;82.95;99378.38;7409060;19;20027;-65
2022/01/09 00:35:23;;;;;;;7.38;5.40;;;;;;;-1.29;82.81;99383.50;7409062;19;20010;-64
2022/01/09 00:37:52;;;;;;;10.18;5.60;;;;;;;-1.32;83.30;99374.91;7409395;19;20103;-65
2022/01/09 00:40:20;;;;;;;10.23;5.63;;;;;;;-1.36;82.34;99364.63;7409264;19;20022;-65
2022/01/09 00:42:51;;;;;;;9.15;5.70;;;;;;;-1.33;81.56;99367.19;7409287;19;20027;-65
2022/01/09 00:45:20;;;;;;;10.13;6.18;;;;;;;-1.32;82.54;99364.63;7409153;19;20010;-64
2022/01/09 00:47:48;;;;;;;12.55;6.70;;;;;;;-1.38;82.71;99346.63;7408633;19;20479;-65
2022/01/09 00:50:18;;;;;;;11.25;6.25;;;;;;;-1.33;83.20;99349.19;7409191;19;20014;-65
2022/01/09 00:52:46;;;;;;;9.23;6.22;;;;;;;-1.34;81.06;99352.59;7408906;19;20028;-63
2022/01/09 00:55:14;;;;;;;10.68;6.30;;;;;;;-1.34;83.05;99345.78;7408669;19;20027;-63
2022/01/09 00:57:43;;;;;;;10.32;6.45;;;;;;;-1.33;84.08;99336.31;7408818;19;20022;-64
2022/01/09 01:00:15;;;;;;;10.02;6.53;;;;;;;-1.36;82.43;99332.03;7407119;19;20020;-64
2022/01/09 01:02:44;;;;;;;11.32;6.80;;;;;;;-1.40;82.86;99319.13;7409190;19;20015;-64
2022/01/09 01:05:12;;;;;;;10.52;7.57;;;;;;;-1.38;82.57;99312.28;7408473;19;20014;-64
2022/01/09 01:07:41;;;;;;;9.35;6.95;;;;;;;-1.38;83.46;99314.88;7406665;19;20038;-64
2022/01/09 01:10:10;;;;;;;14.68;8.30;;;;;;;-1.39;82.01;99311.44;7408726;19;20022;-64
2022/01/09 01:12:38;;;;;;;13.07;7.47;;;;;;;-1.39;83.29;99311.44;7408596;19;20014;-65
2022/01/09 01:15:08;;;;;;;13.55;7.45;;;;;;;-1.40;82.59;99308.84;7408323;19;20019;-64
2022/01/09 01:17:39;;;;;;;13.57;7.68;;;;;;;-1.41;82.34;99302.84;7408341;19;20010;-64
2022/01/09 01:20:08;;;;;;;10.60;7.85;;;;;;;-1.42;82.67;99295.13;7408656;19;20010;-64
2022/01/09 01:22:37;;;;;;;11.40;7.68;;;;;;;-1.42;83.52;99295.97;7408217;19;20019;-64
2022/01/09 01:25:06;;;;;;;13.43;7.78;;;;;;;-1.48;83.28;99270.22;7407723;19;20386;-64
2022/01/09 01:27:35;;;;;;;12.65;6.85;;;;;;;-1.43;83.50;99288.25;7406243;19;20052;-64
2022/01/09 01:30:03;;;;;;;15.00;7.80;;;;;;;-1.43;82.24;99294.25;7408035;19;20015;-64
2022/01/09 01:32:31;;;;;;;15.95;8.60;;;;;;;-1.44;83.92;99283.97;7407986;19;20015;-65
2022/01/09 01:35:02;;;;;;;13.02;7.82;;;;;;;-1.44;84.00;99286.53;7408007;19;20011;-64
2022/01/09 01:37:30;;;;;;;13.30;7.70;;;;;;;-1.45;84.21;99279.66;7408312;19;20025;-64
2022/01/09 01:39:59;;;;;;;10.43;7.55;;;;;;;-1.46;84.28;99281.41;7407419;19;20801;-64
2022/01/09 01:42:27;;;;;;;13.70;7.63;;;;;;;-1.48;83.71;99272.78;7404393;19;20070;-64
2022/01/09 01:44:55;;;;;;;13.27;7.30;;;;;;;-1.49;83.24;99277.09;7400308;19;20027;-64
2022/01/09 01:47:24;;;;;;;14.57;7.88;;;;;;;-1.50;83.37;99262.50;7397876;19;20047;-64
2022/01/09 01:49:53;;;;;;;14.25;8.50;;;;;;;-1.51;82.84;99273.66;7400405;19;20086;-64
2022/01/09 01:52:30;;;;;;;10.98;8.38;;;;;;;-1.51;83.85;99267.66;7400389;19;20027;-64
2022/01/09 01:54:58;;;;;;;13.50;7.78;;;;;;;-1.54;84.47;99258.22;7399942;19;20360;-64
2022/01/09 01:57:26;;;;;;;14.32;8.57;;;;;;;-1.55;82.36;99253.91;7397582;19;20011;-64
2022/01/09 01:59:54;;;;;;;13.50;7.47;;;;;;;-1.55;83.61;99259.06;7398333;19;20365;-64
2022/01/09 02:02:25;;;;;;;11.68;7.68;;;;;;;-1.56;83.86;99253.91;7399685;19;20369;-64
2022/01/09 02:04:54;;;;;;;12.02;7.90;;;;;;;-1.55;84.81;99253.06;7400382;19;20007;-64
2022/01/09 02:07:25;;;;;;;13.73;8.73;;;;;;;-1.57;83.98;99247.91;7397488;19;20018;-64
2022/01/09 02:09:53;;;;;;;12.15;8.00;;;;;;;-1.57;84.26;99241.91;7400313;19;20028;-64
2022/01/09 02:12:22;;;;;;;15.77;9.05;;;;;;;-1.58;83.94;99233.34;7399684;19;20019;-66
2022/01/09 02:14:50;;;;;;;12.90;8.73;;;;;;;-1.58;84.22;99228.19;7401373;19;20412;-64
2022/01/09 02:17:20;;;;;;;11.45;7.97;;;;;;;-1.59;83.56;99228.19;7397271;19;20018;-64
2022/01/09 02:19:55;;;;;;;11.95;7.65;;;;;;;-1.60;84.26;99217.03;7399485;19;20032;-64
2022/01/09 02:22:24;;;;;;;12.75;7.78;;;;;;;-1.59;84.67;99215.31;7399737;19;20010;-64
2022/01/09 02:24:52;;;;;;;15.55;7.97;;;;;;;-1.60;83.78;99209.31;7399371;19;20014;-63
2022/01/09 02:27:21;;;;;;;12.25;7.55;;;;;;;-1.61;83.45;99205.03;7398105;19;20031;-64
2022/01/09 02:29:50;;;;;;;13.45;8.07;;;;;;;-1.66;83.45;99192.16;7400914;19;20018;-64
2022/01/09 02:32:19;;;;;;;13.43;8.32;;;;;;;-1.61;84.54;99194.75;7401074;19;20027;-64
2022/01/09 02:34:50;;;;;;;14.45;8.50;;;;;;;-1.60;84.66;99204.19;7400442;19;20036;-64
2022/01/09 02:37:21;;;;;;;14.32;7.50;;;;;;;-1.60;83.66;99201.59;7396931;19;20031;-65
2022/01/09 02:39:50;;;;;;;12.55;8.15;;;;;;;-1.59;84.99;99190.47;7399030;19;20015;-64
2022/01/09 02:42:23;;;;;;;15.25;7.88;;;;;;;-1.59;83.30;99184.44;7398416;19;20025;-64
2022/01/09 02:44:51;;;;;;;11.55;6.80;;;;;;;-1.57;84.04;99187.91;7400018;19;20007;-67
2022/01/09 02:47:21;;;;;;;10.25;7.18;;;;;;;-1.61;84.02;99178.47;7396074;19;20014;-64
2022/01/09 02:49:51;;;;;;;12.20;7.60;;;;;;;-1.57;84.59;99186.16;7398604;19;20035;-65
2022/01/09 02:52:32;;;;;;;9.68;6.82;;;;;;;-1.56;84.67;99169.88;7398641;19;20021;-64
2022/01/09 02:55:11;;;;;;;11.40;7.75;;;;;;;-1.55;84.12;99171.63;7397780;19;20349;-64
2022/01/09 02:57:41;;;;;;;11.50;7.82;;;;;;;-1.55;83.73;99157.91;7399132;19;20018;-64
2022/01/09 03:00:12;;;;;;;11.48;7.97;;;;;;;-1.54;84.15;99157.91;7396818;19;20011;-64
2022/01/09 03:02:41;;;;;;;11.70;7.05;;;;;;;-1.54;84.56;99157.91;7398497;19;20018;-65
2022/01/09 03:05:10;;;;;;;12.45;7.22;;;;;;;-1.53;84.14;99161.31;7397425;19;20014;-65
2022/01/09 03:07:43;;;;;;;13.43;6.75;;;;;;;-1.53;83.72;99156.19;7396547;19;20015;-65
2022/01/09 03:10:13;;;;;;;9.35;6.35;;;;;;;-1.52;83.99;99155.31;7398077;19;20015;-65
2022/01/09 03:12:42;;;;;;;12.60;6.85;;;;;;;-1.50;83.74;99157.03;7398163;19;20023;-65
2022/01/09 03:15:11;;;;;;;11.57;7.55;;;;;;;-1.51;83.42;99152.75;7397527;19;20018;-65
2022/01/09 03:17:40;;;;;;;12.57;6.70;;;;;;;-1.51;83.75;99152.75;7397567;19;20027;-65
2022/01/09 03:20:11;;;;;;;11.10;6.72;;;;;;;-1.49;84.34;99150.22;7397496;19;20010;-68
2022/01/09 03:22:42;;;;;;;10.55;6.57;;;;;;;-1.50;83.69;99144.19;7397824;19;20011;-65
2022/01/09 03:25:11;;;;;;;11.45;6.47;;;;;;;-1.50;83.47;99144.19;7397537;19;20014;-64
2022/01/09 03:27:42;;;;;;;10.40;6.18;;;;;;;-1.51;83.56;99132.16;7395996;19;20027;-65
2022/01/09 03:30:12;;;;;;;11.25;6.78;;;;;;;-1.49;83.89;99134.78;7397622;19;20011;-65
2022/01/09 03:32:41;;;;;;;12.35;6.40;;;;;;;-1.49;84.01;99130.47;7397082;19;20026;-65
2022/01/09 03:35:13;;;;;;;9.88;6.20;;;;;;;-1.49;83.45;99130.47;7396620;19;20027;-64
2022/01/09 03:37:45;;;;;;;10.70;6.30;;;;;;;-1.49;84.02;99135.63;7397332;19;20014;-66
2022/01/09 03:40:18;;;;;;;10.65;5.93;;;;;;;-1.47;83.67;99138.19;7397162;19;20015;-65
2022/01/09 03:42:47;;;;;;;8.80;6.20;;;;;;;-1.46;84.07;99134.75;7397109;19;20018;-66
2022/01/09 03:45:15;;;;;;;13.30;6.72;;;;;;;-1.45;85.02;99130.47;7396428;19;20011;-66
2022/01/09 03:47:44;;;;;;;10.48;6.30;;;;;;;-1.44;84.59;99132.19;7395468;19;20019;-65
2022/01/09 03:50:14;;;;;;;8.15;5.78;;;;;;;-1.45;84.26;99125.31;7396479;19;20019;-65
2022/01/09 03:52:48;;;;;;;10.45;6.20;;;;;;;-1.45;84.30;99118.47;7396084;19;20538;-65
2022/01/09 03:55:17;;;;;;;10.05;6.78;;;;;;;-1.44;84.77;99111.59;7396598;19;20014;-65
2022/01/09 03:57:46;;;;;;;9.07;5.78;;;;;;;-1.43;84.42;99110.75;7396258;19;20010;-66
2022/01/09 04:00:18;;;;;;;10.38;6.07;;;;;;;-1.43;84.29;99106.44;7395122;19;20020;-66
2022/01/09 04:02:48;;;;;;;10.23;6.25;;;;;;;-1.40;85.24;99103.03;7396240;19;20039;-66
2022/01/09 04:05:17;;;;;;;9.98;5.95;;;;;;;-1.39;84.58;99104.75;7395622;19;20014;-66
2022/01/09 04:07:47;;;;;;;8.05;5.68;;;;;;;-1.38;84.97;99096.16;7394211;19;20023;-67
2022/01/09 04:10:18;;;;;;;9.77;6.35;;;;;;;-1.37;84.44;99092.75;7396262;19;20031;-66
2022/01/09 04:12:51;;;;;;;10.10;6.30;;;;;;;-1.35;84.29;99098.75;7395931;19;20019;-66
2022/01/09 04:15:20;;;;;;;11.73;5.85;;;;;;;-1.33;84.70;99085.03;7395506;19;20014;-66
2022/01/09 04:17:51;;;;;;;9.55;6.00;;;;;;;-1.32;83.01;99083.31;7395329;19;20480;-65
2022/01/09 04:20:20;;;;;;;7.50;5.20;;;;;;;-1.30;83.19;99081.59;7396174;19;20018;-65
2022/01/09 04:22:52;;;;;;;9.00;5.70;;;;;;;-1.27;84.57;99079.00;7395117;19;20487;-65
2022/01/09 04:25:20;;;;;;;13.57;5.82;;;;;;;-1.23;84.51;99077.31;7395620;19;20010;-65
2022/01/09 04:27:50;;;;;;;11.35;6.45;;;;;;;-1.20;84.18;99067.88;7394359;19;20031;-65
2022/01/09 04:30:19;;;;;;;10.23;5.57;;;;;;;-1.17;84.27;99067.84;7394702;19;20514;-64
2022/01/09 04:32:47;;;;;;;9.95;5.50;;;;;;;-1.12;84.35;99062.72;7395219;19;20032;-65
2022/01/09 04:35:15;;;;;;;8.55;5.53;;;;;;;-1.09;83.39;99067.00;7394918;19;20031;-65
2022/01/09 04:37:44;;;;;;;8.73;5.70;;;;;;;-1.05;83.64;99064.44;7395118;19;20018;-65
2022/01/09 04:40:17;;;;;;;8.25;5.07;;;;;;;-1.01;83.43;99063.56;7394978;19;20029;-65
2022/01/09 04:42:49;;;;;;;7.70;5.20;;;;;;;-0.96;83.53;99057.53;7394771;19;20368;-65
2022/01/09 04:45:19;;;;;;;9.18;4.95;;;;;;;-0.92;82.28;99054.06;7394326;19;20498;-65
2022/01/09 04:47:49;;;;;;;8.38;4.88;;;;;;;-0.88;82.44;99061.81;7393893;19;20015;-65
2022/01/09 04:50:21;;;;;;;9.18;5.43;;;;;;;-0.85;83.62;99054.09;7395643;19;20398;-65
2022/01/09 04:52:52;;;;;;;7.43;4.78;;;;;;;-0.82;83.08;99046.34;7395076;19;20015;-65
2022/01/09 04:55:23;;;;;;;8.20;4.82;;;;;;;-0.76;83.78;99055.75;7394740;19;20021;-65
2022/01/09 04:57:51;;;;;;;7.60;5.20;;;;;;;-0.71;84.17;99058.31;7394253;19;20385;-65
2022/01/09 05:00:20;;;;;;;9.25;5.43;;;;;;;-0.69;83.12;99054.88;7393154;19;20015;-65
2022/01/09 05:02:48;;;;;;;7.78;4.72;;;;;;;-0.66;81.42;99054.00;7394488;19;20035;-65
2022/01/09 05:05:17;;;;;;;7.80;4.65;;;;;;;-0.69;83.17;99039.44;7394108;19;20022;-65
2022/01/09 05:07:45;;;;;;;6.93;4.95;;;;;;;-0.59;82.29;99047.97;7393056;19;20479;-65
2022/01/09 05:10:14;;;;;;;9.32;4.90;;;;;;;-0.57;83.26;99048.84;7394277;19;20035;-65
2022/01/09 05:12:52;;;;;;;7.18;4.60;;;;;;;-0.55;83.36;99049.69;7394150;19;20010;-65
2022/01/09 05:15:21;;;;;;;10.23;5.22;;;;;;;-0.51;82.50;99051.38;7394731;19;20015;-65
2022/01/09 05:17:51;;;;;;;8.10;4.40;;;;;;;-0.50;83.16;99047.94;7394752;19;20094;-65
2022/01/09 05:20:25;;;;;;;7.10;4.82;;;;;;;-0.47;82.70;99046.22;7401397;19;20018;-65
2022/01/09 05:22:53;;;;;;;5.93;4.18;;;;;;;-0.45;82.71;99045.34;7401355;19;20027;-65
2022/01/09 05:25:22;;;;;;;6.00;4.28;;;;;;;-0.43;82.57;99047.91;7400867;19;20031;-65
2022/01/09 05:27:52;;;;;;;8.95;5.18;;;;;;;-0.42;82.95;99052.22;7399939;19;20052;-65
2022/01/09 05:30:21;;;;;;;5.28;3.60;;;;;;;-0.42;81.14;99050.47;7401195;19;20027;-65
2022/01/09 05:32:49;;;;;;;6.90;4.57;;;;;;;-0.40;80.74;99042.78;7401008;19;20018;-65
2022/01/09 05:35:17;;;;;;;7.10;4.53;;;;;;;-0.39;82.49;99039.31;7400533;19;20023;-65
2022/01/09 05:37:46;;;;;;;8.13;4.63;;;;;;;-0.38;81.92;99035.88;7400682;19;20014;-65
2022/01/09 05:40:15;;;;;;;5.78;4.07;;;;;;;-0.35;82.13;99043.59;7400845;19;20015;-65
2022/01/09 05:42:43;;;;;;;6.43;4.22;;;;;;;-0.35;82.32;99038.44;7400474;19;20527;-65
2022/01/09 05:45:16;;;;;;;8.73;4.28;;;;;;;-0.33;80.90;99041.84;7400504;19;20036;-65
2022/01/09 05:47:45;;;;;;;10.77;4.23;;;;;;;-0.30;82.62;99047.00;7400219;19;20018;-64
2022/01/09 05:50:13;;;;;;;7.20;4.32;;;;;;;-0.28;82.28;99044.41;7400149;19;20499;-64
2022/01/09 05:52:41;;;;;;;7.72;4.70;;;;;;;-0.26;80.88;99040.13;7400372;19;20022;-65
2022/01/09 05:55:11;;;;;;;6.32;4.20;;;;;;;-0.24;82.47;99039.25;7399683;19;20505;-64
2022/01/09 05:57:39;;;;;;;9.25;4.57;;;;;;;-0.23;81.50;99040.97;7400003;19;20032;-64
2022/01/09 06:00:09;;;;;;;6.97;5.18;;;;;;;-0.24;82.87;99034.09;7398414;19;20475;-64
2022/01/09 06:02:40;;;;;;;7.68;4.45;;;;;;;-0.18;82.63;99040.91;7400069;19;20031;-66
2022/01/09 06:05:09;;;;;;;8.70;4.72;;;;;;;-0.16;82.44;99039.19;7399998;19;20106;-66
2022/01/09 06:07:40;;;;;;;8.13;4.90;;;;;;;-0.14;81.68;99049.50;7398939;19;20022;-65
2022/01/09 06:10:10;;;;;;;6.35;4.30;;;;;;;-0.12;82.75;99045.19;7399633;19;20015;-65
2022/01/09 06:12:39;;;;;;;7.07;4.60;;;;;;;-0.10;82.46;99040.88;7399764;19;20022;-66
2022/01/09 06:15:09;;;;;;;6.10;4.40;;;;;;;-0.08;82.07;99046.88;7398997;19;20022;-65
2022/01/09 06:17:41;;;;;;;9.10;4.65;;;;;;;-0.07;81.78;99046.88;7399179;19;20018;-65
2022/01/09 06:20:12;;;;;;;6.03;4.20;;;;;;;-0.06;82.68;99040.84;7399772;19;20010;-65
2022/01/09 06:22:41;;;;;;;5.90;3.80;;;;;;;-0.04;81.60;99039.13;7399257;19;20022;-66
2022/01/09 06:25:10;;;;;;;5.85;4.25;;;;;;;-0.01;81.51;99036.53;7399145;19;20032;-66
2022/01/09 06:27:39;;;;;;;6.97;4.32;;;;;;;-0.04;81.99;99036.56;7398286;19;20504;-65
2022/01/09 06:30:09;;;;;;;10.27;3.78;;;;;;;0.03;82.05;99027.06;7397869;19;20010;-66
2022/01/09 06:32:40;;;;;;;6.18;3.67;;;;;;;0.05;81.64;99027.91;7398988;19;20015;-66
2022/01/09 06:35:10;;;;;;;8.13;4.45;;;;;;;0.05;79.11;99035.66;7398021;19;20023;-66
2022/01/09 06:37:38;;;;;;;8.75;4.40;;;;;;;0.08;80.61;99038.19;7398039;19;20147;-65
2022/01/09 06:40:09;;;;;;;7.93;3.88;;;;;;;0.10;80.61;99044.22;7398096;19;20031;-65
2022/01/09 06:42:38;;;;;;;6.10;3.58;;;;;;;0.13;80.65;99048.50;7398649;19;20018;-66
2022/01/09 06:45:07;;;;;;;8.02;4.35;;;;;;;0.15;81.76;99050.19;7398320;19;20094;-65
2022/01/09 06:47:35;;;;;;;7.60;4.20;;;;;;;0.15;80.71;99047.63;7397943;19;20118;-65
2022/01/09 06:50:07;;;;;;;6.53;3.70;;;;;;;0.16;79.75;99048.47;7398129;19;20145;-66
2022/01/09 06:52:35;;;;;;;5.50;3.78;;;;;;;0.18;81.36;99049.31;7398137;19;20018;-65
2022/01/09 06:55:03;;;;;;;5.80;3.80;;;;;;;0.20;80.96;99050.13;7397239;19;20496;-65
2022/01/09 06:57:54;;;;;;;5.47;4.20;;;;;;;0.20;80.86;99047.56;7397616;19;20010;-66
2022/01/09 07:00:30;;;;;;;5.07;3.60;;;;;;;0.21;81.84;99056.16;7396820;19;20010;-66
2022/01/09 07:03:04;;;;;;;5.30;3.78;;;;;;;0.21;81.59;99051.84;7397241;19;20358;-65
2022/01/09 07:05:35;;;;;;;;;;;;;;;0.21;78.99;99044.13;7397574;19;20023;-66
2022/01/09 07:08:03;;;;;;;6.82;4.20;;;;;;;0.19;81.49;99035.56;7396847;19;19936;-64
2022/01/09 07:10:31;;;;;;;5.82;4.18;;;;;;;0.23;81.82;99042.41;7396915;19;20027;-65
2022/01/09 07:12:59;;;;;;;5.05;3.70;;;;;;;0.24;81.61;99046.69;7396601;19;20021;-65
2022/01/09 07:15:27;;;;;;;7.53;4.20;;;;;;;0.25;81.91;99039.81;7395605;19;20500;-65
2022/01/09 07:17:55;;;;;;;6.65;4.00;;;;;;;0.26;81.28;99044.94;7397785;19;20022;-65
2022/01/09 07:20:24;;;;;;;6.25;3.30;;;;;;;0.28;81.72;99044.97;7397291;19;20018;-65
2022/01/09 07:22:54;;;;;;;5.15;3.55;;;;;;;0.28;81.12;99047.53;7397166;19;20022;-65
2022/01/09 07:25:24;;;;;;;16.92;15.57;;;;;;;0.27;81.13;99045.81;7397293;19;20492;-65
2022/01/09 07:27:52;;;;;;;7.47;3.80;;;;;;;0.29;81.92;99044.94;7396725;19;20033;-65
2022/01/09 07:30:20;;;;;;;5.90;3.92;;;;;;;0.30;81.16;99046.66;7396631;19;20015;-65
2022/01/09 07:32:48;;;;;;;6.97;3.75;;;;;;;0.33;81.75;99045.78;7396583;19;20010;-65
2022/01/09 07:35:16;;;;;;;5.53;3.80;;;;;;;0.35;80.78;99054.34;7395647;19;20031;-66
2022/01/09 07:37:44;;;;;;;5.35;3.70;;;;;;;0.36;81.35;99053.47;7396358;19;20019;-65
2022/01/09 07:40:16;;;;;;;7.75;4.15;;;;;;;0.33;80.46;99045.78;7394983;19;20018;-66
2022/01/09 07:42:46;;;;;;;7.88;3.92;;;;;;;0.39;80.23;99052.59;7396197;19;20010;-65
2022/01/09 07:45:14;;;;;;;4.32;3.33;;;;;;;0.41;80.20;99056.03;7395998;19;20032;-65
2022/01/09 07:47:43;;;;;;;6.68;3.85;;;;;;;0.41;78.85;99061.19;7396000;19;20015;-66
2022/01/09 07:50:14;;;;;;;4.25;3.65;;;;;;;0.42;79.35;99056.00;7396166;19;20035;-65
2022/01/09 07:52:42;;;;;;;5.18;4.07;;;;;;;0.41;80.83;99061.19;7396421;19;20032;-66
2022/01/09 07:55:14;;;;;;;8.55;4.38;;;;;;;0.48;80.83;99065.41;7395969;19;20027;-66
2022/01/09 07:57:43;;;;;;;5.82;3.80;;;;;;;0.50;80.50;99068.84;7396630;19;20015;-66
2022/01/09 08:00:13;;;;;;;7.00;4.05;;;;;;;0.52;80.12;99064.56;7395345;19;20014;-66
2022/01/09 08:02:41;;;;;;;9.20;5.85;;;;;;;0.55;80.08;99058.50;7396208;19;20018;-66
2022/01/09 08:05:10;;;;;;;8.35;4.88;;;;;;;0.58;80.52;99061.03;7395717;19;20018;-66
2022/01/09 08:07:38;;;;;;;4.07;3.47;;;;;;;0.60;79.33;99051.59;7395935;19;20028;-66
2022/01/09 08:10:08;;;;;;;6.40;4.03;;;;;;;0.61;79.60;99064.47;7394137;19;20341;-65
2022/01/09 08:12:40;;;;;;;17.88;9.60;;;;;;;0.63;79.10;99054.13;7395501;19;20031;-66
2022/01/09 08:15:09;;;;;;;6.88;5.15;;;;;;;0.61;80.64;99050.72;7396902;19;20032;-65
2022/01/09 08:17:37;;;;;;;7.50;3.97;;;;;;;0.69;79.17;99054.06;7396775;19;20030;-66
2022/01/09 08:20:06;;;;;;;6.10;4.15;;;;;;;0.70;78.08;99055.78;7397025;19;20010;-65
2022/01/09 08:22:36;;;;;;;9.82;5.05;;;;;;;0.72;79.85;99056.66;7395541;19;20019;-66
2022/01/09 08:25:06;;;;;;;5.53;4.07;;;;;;;0.73;78.81;99060.91;7395056;19;20036;-67
2022/01/09 08:27:34;;;;;;;6.60;3.78;;;;;;;0.77;78.67;99052.28;7395246;19;20019;-67
2022/01/09 08:30:06;;;;;;;13.07;5.30;;;;;;;0.80;79.19;99060.00;7393475;19;20015;-67
2022/01/09 08:32:34;;;;;;;7.25;5.20;;;;;;;0.82;78.78;99059.97;7395577;19;20010;-66
2022/01/09 08:35:03;;;;;;;7.40;4.75;;;;;;;0.85;79.20;99047.06;7394640;19;20031;-66
2022/01/09 08:37:31;;;;;;;7.80;4.47;;;;;;;0.89;78.77;99050.47;7393070;19;20019;-66
2022/01/09 08:39:59;;;;;;;5.13;4.10;;;;;;;0.91;79.02;99054.75;7394861;19;20014;-65
2022/01/09 08:42:27;;;;;;;6.57;4.32;;;;;;;0.95;77.87;99055.56;7394543;19;20014;-66
2022/01/09 08:44:55;;;;;;;7.38;4.68;;;;;;;0.98;78.62;99055.53;7392759;19;20451;-65
2022/01/09 08:47:27;;;;;;;5.30;3.70;;;;;;;1.01;77.49;99052.06;7391505;19;20041;-65
2022/01/09 08:49:55;;;;;;;8.80;4.57;;;;;;;1.04;78.38;99050.31;7393453;19;20019;-65
2022/01/09 08:52:23;;;;;;;8.07;4.65;;;;;;;1.06;77.52;99058.03;7396354;19;20523;-65
2022/01/09 08:54:51;;;;;;;6.57;4.53;;;;;;;1.03;78.85;99051.19;7401377;19;20023;-65
2022/01/09 08:57:19;;;;;;;6.38;4.05;;;;;;;1.11;78.09;99062.31;7398296;19;20018;-66
2022/01/09 08:59:47;;;;;;;8.45;4.18;;;;;;;1.12;77.26;99056.25;7401641;19;20027;-65
2022/01/09 09:02:16;;;;;;;5.95;4.05;;;;;;;1.17;79.12;99057.94;7401915;19;20018;-66
2022/01/09 09:04:47;;;;;;;7.35;5.05;;;;;;;1.18;76.84;99062.25;7401923;19;20051;-66
2022/01/09 09:07:23;;;;;;;7.03;4.10;;;;;;;1.21;78.74;99063.03;7399249;19;20070;-66
2022/01/09 09:09:51;;;;;;;7.18;4.30;;;;;;;1.24;77.95;99069.91;7399869;19;20037;-65
2022/01/09 09:12:19;;;;;;;6.80;4.43;;;;;;;1.26;78.41;99065.56;7401857;19;20026;-66
2022/01/09 09:14:49;;;;;;;10.20;5.80;;;;;;;1.29;79.19;99071.56;7402387;19;20019;-67
2022/01/09 09:17:17;;;;;;;9.23;5.45;;;;;;;1.33;79.05;99072.41;7398770;19;20026;-66
2022/01/09 09:19:48;;;;;;;10.13;5.47;;;;;;;1.37;78.59;99068.06;7400745;19;20373;-66
2022/01/09 09:22:16;;;;;;;11.70;6.32;;;;;;;1.39;78.53;99072.34;7401197;19;20022;-66
2022/01/09 09:24:45;;;;;;;7.53;4.90;;;;;;;1.43;79.25;99073.16;7399768;19;20074;-66
2022/01/09 09:27:13;;;;;;;8.13;5.30;;;;;;;1.47;78.96;99072.25;7398045;19;20093;-66
2022/01/09 09:29:42;;;;;;;7.97;4.40;;;;;;;1.52;78.82;99072.19;7399093;19;20014;-66
2022/01/09 09:32:10;;;;;;;9.38;5.72;;;;;;;1.52;79.38;99070.47;7400857;19;20011;-67
2022/01/09 09:34:39;;;;;;;7.82;4.50;;;;;;;1.60;78.40;99078.13;7400389;19;20023;-63
2022/01/09 09:37:10;;;;;;;5.28;4.15;;;;;;;1.64;79.41;99087.53;7397677;19;20101;-67
2022/01/09 09:39:38;;;;;;;6.95;4.00;;;;;;;1.68;78.74;99073.72;7400589;19;20018;-65
2022/01/09 09:42:07;;;;;;;9.43;4.60;;;;;;;1.72;80.04;99088.31;7400582;19;20022;-66
2022/01/09 09:44:35;;;;;;;9.30;5.00;;;;;;;1.76;78.66;99083.97;7400259;19;20018;-65
2022/01/09 09:47:04;;;;;;;7.60;4.55;;;;;;;1.79;78.12;99083.91;7398237;19;20035;-65
2022/01/09 09:49:32;;;;;;;8.73;4.63;;;;;;;1.82;79.49;99080.44;7399115;19;20023;-65
2022/01/09 09:52:00;;;;;;;6.43;4.85;;;;;;;1.85;79.58;99080.41;7400159;19;20511;-65
2022/01/09 09:54:31;;;;;;;6.35;4.30;;;;;;;1.87;77.83;99073.47;7400133;19;20011;-66
2022/01/09 09:56:59;;;;;;;5.55;3.40;;;;;;;1.89;78.31;99074.31;7397572;19;20483;-66
2022/01/09 09:59:30;;;;;;;8.02;4.53;;;;;;;1.93;79.84;99078.56;7400077;19;20014;-66
2022/01/09 10:01:58;;;;;;;6.70;4.15;;;;;;;1.95;78.04;99075.09;7397833;19;20073;-65
2022/01/09 10:04:27;;;;;;;8.80;4.35;;;;;;;1.98;75.58;99075.94;7397761;19;20023;-65
2022/01/09 10:06:55;;;;;;;7.45;4.95;;;;;;;2.00;77.47;99080.22;7397782;19;20018;-65
2022/01/09 10:09:25;;;;;;;8.38;4.75;;;;;;;2.05;79.60;99083.59;7398394;19;20014;-66
2022/01/09 10:12:00;;;;;;;6.10;4.40;;;;;;;2.09;78.96;99087.81;7399012;19;20483;-66
2022/01/09 10:14:30;;;;;;;5.88;4.43;;;;;;;2.14;77.70;99082.59;7398734;19;20613;-66
2022/01/09 10:17:16;;;;;;;7.25;4.03;;;;;;;2.18;78.28;99081.66;7397079;19;20036;-66
2022/01/09 10:19:52;;;;;;;11.15;5.78;;;;;;;2.22;77.44;99077.31;7399262;19;20017;-66
2022/01/09 10:22:29;;;;;;;5.68;4.43;;;;;;;2.28;79.33;99077.22;7398846;19;20019;-66
2022/01/09 10:24:59;;;;;;;5.93;4.05;;;;;;;2.33;80.33;99082.34;7399171;19;20018;-66
2022/01/09 10:27:35;;;;;;;8.30;4.28;;;;;;;2.37;79.50;99086.59;7396518;19;20022;-66
2022/01/09 10:30:05;;;;;;;9.43;5.05;;;;;;;2.41;79.88;99086.53;7397413;19;20015;-65
2022/01/09 10:32:34;;;;;;;7.95;4.82;;;;;;;2.43;79.67;99082.16;7398948;19;20019;-64
2022/01/09 10:35:07;;;;;;;8.82;5.32;;;;;;;2.48;79.38;99091.59;7398996;19;20022;-65
2022/01/09 10:37:36;;;;;;;8.45;4.50;;;;;;;2.52;79.31;99090.69;7398996;19;20039;-65
2022/01/09 10:40:05;;;;;;;8.18;4.50;;;;;;;2.56;79.75;99090.59;7398295;19;20015;-66
2022/01/09 10:42:36;;;;;;;6.93;4.22;;;;;;;2.57;79.01;99083.69;7398590;19;20019;-66
2022/01/09 10:45:24;;;;;;;7.20;4.45;;;;;;;2.69;78.94;99101.63;7398434;19;20014;-66
2022/01/09 10:47:55;;;;;;;6.38;4.25;;;;;;;2.75;78.72;99083.38;7399017;19;20031;-66
2022/01/09 10:50:32;;;;;;;5.82;4.25;;;;;;;2.81;75.89;99090.22;7396695;19;20014;-66
2022/01/09 10:53:25;;;;;;;5.70;4.10;;;;;;;2.88;75.23;99088.38;7398768;19;20011;-66
2022/01/09 10:56:06;;;;;;;7.50;4.15;;;;;;;2.95;77.12;99089.13;7396998;19;20526;-66
2022/01/09 10:58:39;;;;;;;7.03;4.25;;;;;;;3.01;76.73;99100.25;7398249;19;20019;-66
2022/01/09 11:01:20;;;;;;;7.15;4.03;;;;;;;3.06;75.62;99102.75;7396436;19;20027;-66
2022/01/09 11:03:51;;;;;;;7.43;4.00;;;;;;;3.12;78.18;99105.22;7397878;19;20019;-66
2022/01/09 11:06:20;;;;;;;6.75;4.35;;;;;;;3.17;76.87;99113.78;7396841;19;20019;-66
2022/01/09 11:08:49;;;;;;;6.43;4.30;;;;;;;3.19;78.22;99108.56;7397586;19;20026;-66
2022/01/09 11:11:26;;;;;;;5.80;3.95;;;;;;;3.20;77.55;99107.69;7397507;19;20018;-66
2022/01/09 11:13:59;;;;;;;6.72;4.05;;;;;;;3.20;77.23;99113.72;7397728;19;20037;-66
2022/01/09 11:16:36;;;;;;;7.25;4.35;;;;;;;3.21;78.68;99112.84;7396397;19;20028;-66
2022/01/09 11:19:10;;;;;;;4.50;3.53;;;;;;;3.21;76.81;99125.81;7397695;19;20011;-66
2022/01/09 11:21:41;;;;;;;6.90;4.00;;;;;;;3.23;77.51;99120.59;7397375;19;20027;-67
2022/01/09 11:24:37;;;;;;;6.88;4.50;;;;;;;3.25;74.70;99121.44;7397550;19;20018;-66
2022/01/09 11:27:16;;;;;;;7.90;4.25;;;;;;;3.28;77.14;99123.94;7395640;19;20027;-66
2022/01/09 11:30:00;;;;;;;6.95;4.25;;;;;;;3.29;75.48;99123.06;7396204;19;20018;-66
2022/01/09 11:32:42;;;;;;;7.87;4.37;;;;;;;3.32;77.51;99132.53;7397937;19;20019;-67
2022/01/09 11:35:20;;;;;;;6.57;4.00;;;;;;;3.32;78.14;99137.72;7397499;19;20031;-65
2022/01/09 11:37:58;;;;;;;8.52;4.65;;;;;;;3.32;79.22;99129.94;7397039;19;20022;-67
2022/01/09 11:40:27;;;;;;;6.50;4.72;;;;;;;3.33;79.60;99134.25;7397141;19;20035;-65
2022/01/09 11:43:09;;;;;;;10.13;6.03;;;;;;;3.31;76.43;99134.28;7396750;19;20015;-65
2022/01/09 11:45:46;;;;;;;10.38;6.60;;;;;;;3.30;77.88;99134.28;7396404;19;20014;-66
2022/01/09 11:48:16;;;;;;;6.55;4.30;;;;;;;3.30;79.74;99131.69;7396210;19;20362;-65